sensor_id;sensor_type;location;lat;lon;timestamp;P1;durP1;ratioP1;P2;durP2;ratioP2
27412;SDS011;14871;52.702;5.230;2023-12-20T00:01:06;16.27;;;2.55;;
27412;SDS011;14871;52.702;5.230;2023-12-20T00:03:32;18.00;;;2.83;;
27412;SDS011;14871;52.702;5.230;2023-12-20T00:05:57;12.55;;;2.40;;
27412;SDS011;14871;52.702;5.230;2023-12-20T00:08:23;21.42;;;3.17;;
27412;SDS011;14871;52.702;5.230;2023-12-20T00:10:48;17.58;;;2.33;;
27412;SDS011;14871;52.702;5.230;2023-12-20T00:13:14;22.27;;;3.47;;
27412;SDS011;14871;52.702;5.230;2023-12-20T00:15:39;15.93;;;2.33;;
27412;SDS011;14871;52.702;5.230;2023-12-20T00:18:05;17.13;;;3.03;;
27412;SDS011;14871;52.702;5.230;2023-12-20T00:20:31;15.98;;;2.88;;
27412;SDS011;14871;52.702;5.230;2023-12-20T00:22:57;19.13;;;3.38;;
27412;SDS011;14871;52.702;5.230;2023-12-20T00:25:23;16.33;;;2.35;;
27412;SDS011;14871;52.702;5.230;2023-12-20T00:27:49;22.60;;;3.83;;
27412;SDS011;14871;52.702;5.230;2023-12-20T00:30:15;18.35;;;2.75;;
27412;SDS011;14871;52.702;5.230;2023-12-20T00:32:41;17.92;;;3.00;;
27412;SDS011;14871;52.702;5.230;2023-12-20T00:35:12;19.60;;;3.25;;
27412;SDS011;14871;52.702;5.230;2023-12-20T00:37:38;15.75;;;2.72;;
27412;SDS011;14871;52.702;5.230;2023-12-20T00:40:04;22.45;;;3.10;;
27412;SDS011;14871;52.702;5.230;2023-12-20T00:42:30;21.65;;;3.63;;
27412;SDS011;14871;52.702;5.230;2023-12-20T00:44:56;21.77;;;3.47;;
27412;SDS011;14871;52.702;5.230;2023-12-20T00:47:22;18.95;;;3.45;;
27412;SDS011;14871;52.702;5.230;2023-12-20T00:49:48;17.58;;;2.83;;
27412;SDS011;14871;52.702;5.230;2023-12-20T00:52:13;16.15;;;3.38;;
27412;SDS011;14871;52.702;5.230;2023-12-20T00:54:39;26.05;;;3.22;;
27412;SDS011;14871;52.702;5.230;2023-12-20T00:57:04;19.25;;;3.38;;
27412;SDS011;14871;52.702;5.230;2023-12-20T00:59:30;21.55;;;4.88;;
27412;SDS011;14871;52.702;5.230;2023-12-20T01:01:56;18.27;;;3.40;;
27412;SDS011;14871;52.702;5.230;2023-12-20T01:04:21;20.05;;;3.40;;
27412;SDS011;14871;52.702;5.230;2023-12-20T01:06:47;19.90;;;3.33;;
27412;SDS011;14871;52.702;5.230;2023-12-20T01:09:12;22.20;;;3.13;;
27412;SDS011;14871;52.702;5.230;2023-12-20T01:11:38;13.52;;;2.88;;
27412;SDS011;14871;52.702;5.230;2023-12-20T01:14:04;17.80;;;3.55;;
27412;SDS011;14871;52.702;5.230;2023-12-20T01:16:30;20.08;;;3.75;;
27412;SDS011;14871;52.702;5.230;2023-12-20T01:18:55;21.85;;;3.47;;
27412;SDS011;14871;52.702;5.230;2023-12-20T01:21:21;19.05;;;3.33;;
27412;SDS011;14871;52.702;5.230;2023-12-20T01:23:46;22.02;;;4.07;;
27412;SDS011;14871;52.702;5.230;2023-12-20T01:26:12;26.15;;;4.32;;
27412;SDS011;14871;52.702;5.230;2023-12-20T01:28:39;20.95;;;3.97;;
27412;SDS011;14871;52.702;5.230;2023-12-20T01:31:05;28.75;;;4.25;;
27412;SDS011;14871;52.702;5.230;2023-12-20T01:33:31;23.08;;;3.78;;
27412;SDS011;14871;52.702;5.230;2023-12-20T01:35:56;18.13;;;3.63;;
27412;SDS011;14871;52.702;5.230;2023-12-20T01:38:22;25.58;;;4.50;;
27412;SDS011;14871;52.702;5.230;2023-12-20T01:40:47;19.90;;;4.07;;
27412;SDS011;14871;52.702;5.230;2023-12-20T01:43:13;23.25;;;4.28;;
27412;SDS011;14871;52.702;5.230;2023-12-20T01:45:39;21.60;;;4.55;;
27412;SDS011;14871;52.702;5.230;2023-12-20T01:48:05;26.67;;;4.22;;
27412;SDS011;14871;52.702;5.230;2023-12-20T01:50:31;24.48;;;4.35;;
27412;SDS011;14871;52.702;5.230;2023-12-20T01:53:01;31.27;;;6.60;;
27412;SDS011;14871;52.702;5.230;2023-12-20T01:55:29;21.13;;;4.20;;
27412;SDS011;14871;52.702;5.230;2023-12-20T01:57:58;22.38;;;3.88;;
27412;SDS011;14871;52.702;5.230;2023-12-20T02:00:25;23.55;;;3.83;;
27412;SDS011;14871;52.702;5.230;2023-12-20T02:02:53;17.33;;;4.20;;
27412;SDS011;14871;52.702;5.230;2023-12-20T02:05:20;20.75;;;3.58;;
27412;SDS011;14871;52.702;5.230;2023-12-20T02:07:50;19.67;;;3.63;;
27412;SDS011;14871;52.702;5.230;2023-12-20T02:10:16;23.08;;;4.35;;
27412;SDS011;14871;52.702;5.230;2023-12-20T02:12:42;21.98;;;4.40;;
27412;SDS011;14871;52.702;5.230;2023-12-20T02:15:07;27.15;;;4.30;;
27412;SDS011;14871;52.702;5.230;2023-12-20T02:17:33;24.08;;;4.10;;
27412;SDS011;14871;52.702;5.230;2023-12-20T02:19:59;27.38;;;4.55;;
27412;SDS011;14871;52.702;5.230;2023-12-20T02:22:24;28.30;;;3.92;;
27412;SDS011;14871;52.702;5.230;2023-12-20T02:24:50;26.38;;;4.55;;
27412;SDS011;14871;52.702;5.230;2023-12-20T02:27:16;23.15;;;4.43;;
27412;SDS011;14871;52.702;5.230;2023-12-20T02:29:44;25.02;;;5.50;;
27412;SDS011;14871;52.702;5.230;2023-12-20T02:32:12;22.02;;;4.20;;
27412;SDS011;14871;52.702;5.230;2023-12-20T02:34:37;20.42;;;3.90;;
27412;SDS011;14871;52.702;5.230;2023-12-20T02:37:03;21.35;;;4.15;;
27412;SDS011;14871;52.702;5.230;2023-12-20T02:39:29;16.30;;;3.45;;
27412;SDS011;14871;52.702;5.230;2023-12-20T02:41:55;20.88;;;4.10;;
27412;SDS011;14871;52.702;5.230;2023-12-20T02:44:21;23.08;;;3.88;;
27412;SDS011;14871;52.702;5.230;2023-12-20T02:46:46;18.65;;;3.55;;
27412;SDS011;14871;52.702;5.230;2023-12-20T02:49:12;18.40;;;3.85;;
27412;SDS011;14871;52.702;5.230;2023-12-20T02:51:38;19.92;;;3.58;;
27412;SDS011;14871;52.702;5.230;2023-12-20T02:54:04;21.90;;;3.60;;
27412;SDS011;14871;52.702;5.230;2023-12-20T02:56:30;17.23;;;3.53;;
27412;SDS011;14871;52.702;5.230;2023-12-20T02:58:56;23.83;;;4.20;;
27412;SDS011;14871;52.702;5.230;2023-12-20T03:01:22;14.20;;;2.90;;
27412;SDS011;14871;52.702;5.230;2023-12-20T03:03:48;23.10;;;3.33;;
27412;SDS011;14871;52.702;5.230;2023-12-20T03:06:16;23.52;;;4.28;;
27412;SDS011;14871;52.702;5.230;2023-12-20T03:08:45;18.15;;;4.35;;
27412;SDS011;14871;52.702;5.230;2023-12-20T03:11:11;23.67;;;5.63;;
27412;SDS011;14871;52.702;5.230;2023-12-20T03:13:37;25.13;;;4.22;;
27412;SDS011;14871;52.702;5.230;2023-12-20T03:16:12;16.02;;;3.47;;
27412;SDS011;14871;52.702;5.230;2023-12-20T03:18:38;26.90;;;4.82;;
27412;SDS011;14871;52.702;5.230;2023-12-20T03:21:05;23.77;;;4.22;;
27412;SDS011;14871;52.702;5.230;2023-12-20T03:23:31;23.00;;;4.28;;
27412;SDS011;14871;52.702;5.230;2023-12-20T03:25:58;21.85;;;3.80;;
27412;SDS011;14871;52.702;5.230;2023-12-20T03:28:25;22.00;;;4.45;;
27412;SDS011;14871;52.702;5.230;2023-12-20T03:30:51;22.10;;;4.60;;
27412;SDS011;14871;52.702;5.230;2023-12-20T03:33:17;22.65;;;3.95;;
27412;SDS011;14871;52.702;5.230;2023-12-20T03:35:42;24.33;;;4.43;;
27412;SDS011;14871;52.702;5.230;2023-12-20T03:38:08;28.08;;;4.47;;
27412;SDS011;14871;52.702;5.230;2023-12-20T03:40:34;14.48;;;4.70;;
27412;SDS011;14871;52.702;5.230;2023-12-20T03:43:00;27.27;;;4.22;;
27412;SDS011;14871;52.702;5.230;2023-12-20T03:45:26;26.92;;;5.43;;
27412;SDS011;14871;52.702;5.230;2023-12-20T03:47:51;24.00;;;3.60;;
27412;SDS011;14871;52.702;5.230;2023-12-20T03:50:24;22.63;;;3.92;;
27412;SDS011;14871;52.702;5.230;2023-12-20T03:52:50;23.00;;;3.88;;
27412;SDS011;14871;52.702;5.230;2023-12-20T03:55:16;21.63;;;3.92;;
27412;SDS011;14871;52.702;5.230;2023-12-20T03:57:41;28.50;;;4.93;;
27412;SDS011;14871;52.702;5.230;2023-12-20T04:00:07;25.40;;;4.60;;
27412;SDS011;14871;52.702;5.230;2023-12-20T04:02:40;21.63;;;4.50;;
27412;SDS011;14871;52.702;5.230;2023-12-20T04:05:06;24.58;;;3.83;;
27412;SDS011;14871;52.702;5.230;2023-12-20T04:07:33;21.27;;;4.10;;
27412;SDS011;14871;52.702;5.230;2023-12-20T04:09:59;27.08;;;4.00;;
27412;SDS011;14871;52.702;5.230;2023-12-20T04:12:25;18.98;;;4.28;;
27412;SDS011;14871;52.702;5.230;2023-12-20T04:14:51;24.33;;;4.13;;
27412;SDS011;14871;52.702;5.230;2023-12-20T04:17:17;24.17;;;4.40;;
27412;SDS011;14871;52.702;5.230;2023-12-20T04:19:43;21.38;;;4.05;;
27412;SDS011;14871;52.702;5.230;2023-12-20T04:22:08;29.05;;;4.72;;
27412;SDS011;14871;52.702;5.230;2023-12-20T04:24:34;24.05;;;4.82;;
27412;SDS011;14871;52.702;5.230;2023-12-20T04:27:00;24.25;;;3.95;;
27412;SDS011;14871;52.702;5.230;2023-12-20T04:29:27;20.50;;;3.88;;
27412;SDS011;14871;52.702;5.230;2023-12-20T04:31:52;19.58;;;3.85;;
27412;SDS011;14871;52.702;5.230;2023-12-20T04:34:18;20.90;;;4.10;;
27412;SDS011;14871;52.702;5.230;2023-12-20T04:36:44;23.27;;;4.07;;
27412;SDS011;14871;52.702;5.230;2023-12-20T04:39:11;27.77;;;3.85;;
27412;SDS011;14871;52.702;5.230;2023-12-20T04:41:38;20.30;;;3.33;;
27412;SDS011;14871;52.702;5.230;2023-12-20T04:44:04;23.13;;;4.15;;
27412;SDS011;14871;52.702;5.230;2023-12-20T04:46:31;20.00;;;3.42;;
27412;SDS011;14871;52.702;5.230;2023-12-20T04:48:57;20.35;;;3.45;;
27412;SDS011;14871;52.702;5.230;2023-12-20T04:51:22;21.02;;;3.33;;
27412;SDS011;14871;52.702;5.230;2023-12-20T04:53:48;31.13;;;4.40;;
27412;SDS011;14871;52.702;5.230;2023-12-20T04:56:14;16.95;;;3.40;;
27412;SDS011;14871;52.702;5.230;2023-12-20T04:58:39;28.83;;;5.10;;
27412;SDS011;14871;52.702;5.230;2023-12-20T05:01:05;15.57;;;3.28;;
27412;SDS011;14871;52.702;5.230;2023-12-20T05:03:32;15.52;;;2.95;;
27412;SDS011;14871;52.702;5.230;2023-12-20T05:05:57;26.38;;;3.80;;
27412;SDS011;14871;52.702;5.230;2023-12-20T05:08:23;19.10;;;4.20;;
27412;SDS011;14871;52.702;5.230;2023-12-20T05:10:50;20.42;;;3.75;;
27412;SDS011;14871;52.702;5.230;2023-12-20T05:13:16;26.83;;;3.67;;
27412;SDS011;14871;52.702;5.230;2023-12-20T05:15:42;23.77;;;3.70;;
27412;SDS011;14871;52.702;5.230;2023-12-20T05:18:08;20.10;;;3.35;;
27412;SDS011;14871;52.702;5.230;2023-12-20T05:20:33;24.90;;;4.05;;
27412;SDS011;14871;52.702;5.230;2023-12-20T05:22:59;19.98;;;3.17;;
27412;SDS011;14871;52.702;5.230;2023-12-20T05:25:24;21.67;;;3.85;;
27412;SDS011;14871;52.702;5.230;2023-12-20T05:27:50;21.65;;;3.90;;
27412;SDS011;14871;52.702;5.230;2023-12-20T05:30:16;19.15;;;4.05;;
27412;SDS011;14871;52.702;5.230;2023-12-20T05:32:41;23.00;;;4.90;;
27412;SDS011;14871;52.702;5.230;2023-12-20T05:35:07;25.13;;;4.43;;
27412;SDS011;14871;52.702;5.230;2023-12-20T05:37:32;23.38;;;7.10;;
27412;SDS011;14871;52.702;5.230;2023-12-20T05:39:58;21.92;;;6.20;;
27412;SDS011;14871;52.702;5.230;2023-12-20T05:42:24;32.72;;;10.07;;
27412;SDS011;14871;52.702;5.230;2023-12-20T05:44:49;43.55;;;16.92;;
27412;SDS011;14871;52.702;5.230;2023-12-20T05:47:15;34.03;;;8.77;;
27412;SDS011;14871;52.702;5.230;2023-12-20T05:49:41;33.92;;;11.40;;
27412;SDS011;14871;52.702;5.230;2023-12-20T05:52:07;29.08;;;7.00;;
27412;SDS011;14871;52.702;5.230;2023-12-20T05:54:32;35.78;;;9.80;;
27412;SDS011;14871;52.702;5.230;2023-12-20T05:56:59;25.85;;;6.75;;
27412;SDS011;14871;52.702;5.230;2023-12-20T05:59:25;25.42;;;4.80;;
27412;SDS011;14871;52.702;5.230;2023-12-20T06:01:51;26.45;;;5.63;;
27412;SDS011;14871;52.702;5.230;2023-12-20T06:04:16;22.45;;;5.38;;
27412;SDS011;14871;52.702;5.230;2023-12-20T06:06:42;34.28;;;5.00;;
27412;SDS011;14871;52.702;5.230;2023-12-20T06:09:08;17.42;;;4.40;;
27412;SDS011;14871;52.702;5.230;2023-12-20T06:11:34;21.40;;;4.07;;
27412;SDS011;14871;52.702;5.230;2023-12-20T06:13:59;20.35;;;4.13;;
27412;SDS011;14871;52.702;5.230;2023-12-20T06:16:25;22.13;;;4.57;;
27412;SDS011;14871;52.702;5.230;2023-12-20T06:18:50;26.80;;;4.18;;
27412;SDS011;14871;52.702;5.230;2023-12-20T06:21:16;25.48;;;4.30;;
27412;SDS011;14871;52.702;5.230;2023-12-20T06:23:42;19.95;;;4.68;;
27412;SDS011;14871;52.702;5.230;2023-12-20T06:26:07;25.40;;;4.90;;
27412;SDS011;14871;52.702;5.230;2023-12-20T06:28:33;27.85;;;4.22;;
27412;SDS011;14871;52.702;5.230;2023-12-20T06:30:58;26.70;;;4.07;;
27412;SDS011;14871;52.702;5.230;2023-12-20T06:33:25;27.38;;;5.45;;
27412;SDS011;14871;52.702;5.230;2023-12-20T06:35:51;26.13;;;4.32;;
27412;SDS011;14871;52.702;5.230;2023-12-20T06:38:17;26.65;;;6.20;;
27412;SDS011;14871;52.702;5.230;2023-12-20T06:40:43;31.02;;;5.20;;
27412;SDS011;14871;52.702;5.230;2023-12-20T06:43:09;20.20;;;4.90;;
27412;SDS011;14871;52.702;5.230;2023-12-20T06:45:35;27.50;;;4.90;;
27412;SDS011;14871;52.702;5.230;2023-12-20T06:48:00;29.08;;;5.15;;
27412;SDS011;14871;52.702;5.230;2023-12-20T06:50:26;21.77;;;4.28;;
27412;SDS011;14871;52.702;5.230;2023-12-20T06:52:52;26.00;;;5.25;;
27412;SDS011;14871;52.702;5.230;2023-12-20T06:55:18;25.05;;;5.70;;
27412;SDS011;14871;52.702;5.230;2023-12-20T06:57:43;31.02;;;4.65;;
27412;SDS011;14871;52.702;5.230;2023-12-20T07:00:10;19.50;;;4.63;;
27412;SDS011;14871;52.702;5.230;2023-12-20T07:02:37;18.15;;;3.90;;
27412;SDS011;14871;52.702;5.230;2023-12-20T07:05:02;19.98;;;5.18;;
27412;SDS011;14871;52.702;5.230;2023-12-20T07:07:29;23.88;;;4.05;;
27412;SDS011;14871;52.702;5.230;2023-12-20T07:09:54;25.60;;;4.45;;
27412;SDS011;14871;52.702;5.230;2023-12-20T07:12:20;26.98;;;4.80;;
27412;SDS011;14871;52.702;5.230;2023-12-20T07:14:46;25.42;;;4.57;;
27412;SDS011;14871;52.702;5.230;2023-12-20T07:17:12;23.48;;;4.15;;
27412;SDS011;14871;52.702;5.230;2023-12-20T07:19:39;38.30;;;8.43;;
27412;SDS011;14871;52.702;5.230;2023-12-20T07:22:05;34.10;;;7.70;;
27412;SDS011;14871;52.702;5.230;2023-12-20T07:24:31;21.27;;;4.03;;
27412;SDS011;14871;52.702;5.230;2023-12-20T07:26:58;26.00;;;4.85;;
27412;SDS011;14871;52.702;5.230;2023-12-20T07:29:24;24.15;;;4.95;;
27412;SDS011;14871;52.702;5.230;2023-12-20T07:31:50;26.90;;;4.63;;
27412;SDS011;14871;52.702;5.230;2023-12-20T07:34:17;24.77;;;4.60;;
27412;SDS011;14871;52.702;5.230;2023-12-20T07:36:42;27.38;;;4.82;;
27412;SDS011;14871;52.702;5.230;2023-12-20T07:39:08;27.00;;;5.32;;
27412;SDS011;14871;52.702;5.230;2023-12-20T07:41:34;16.88;;;3.30;;
27412;SDS011;14871;52.702;5.230;2023-12-20T07:43:59;15.75;;;3.92;;
27412;SDS011;14871;52.702;5.230;2023-12-20T07:46:25;22.60;;;4.63;;
27412;SDS011;14871;52.702;5.230;2023-12-20T07:48:50;16.30;;;3.70;;
27412;SDS011;14871;52.702;5.230;2023-12-20T07:51:16;25.45;;;4.65;;
27412;SDS011;14871;52.702;5.230;2023-12-20T07:53:42;25.65;;;4.45;;
27412;SDS011;14871;52.702;5.230;2023-12-20T07:56:17;18.92;;;4.20;;
27412;SDS011;14871;52.702;5.230;2023-12-20T07:58:44;20.70;;;4.30;;
27412;SDS011;14871;52.702;5.230;2023-12-20T08:01:11;26.40;;;5.00;;
27412;SDS011;14871;52.702;5.230;2023-12-20T08:03:38;23.00;;;4.47;;
27412;SDS011;14871;52.702;5.230;2023-12-20T08:06:04;24.85;;;4.60;;
27412;SDS011;14871;52.702;5.230;2023-12-20T08:08:29;26.73;;;4.60;;
27412;SDS011;14871;52.702;5.230;2023-12-20T08:10:55;26.38;;;4.38;;
27412;SDS011;14871;52.702;5.230;2023-12-20T08:13:24;24.05;;;4.60;;
27412;SDS011;14871;52.702;5.230;2023-12-20T08:15:51;32.45;;;4.85;;
27412;SDS011;14871;52.702;5.230;2023-12-20T08:18:17;20.08;;;4.43;;
27412;SDS011;14871;52.702;5.230;2023-12-20T08:20:42;22.95;;;3.92;;
27412;SDS011;14871;52.702;5.230;2023-12-20T08:23:08;27.40;;;4.93;;
27412;SDS011;14871;52.702;5.230;2023-12-20T08:25:34;22.88;;;4.20;;
27412;SDS011;14871;52.702;5.230;2023-12-20T08:27:59;24.15;;;4.20;;
27412;SDS011;14871;52.702;5.230;2023-12-20T08:30:26;25.02;;;7.50;;
27412;SDS011;14871;52.702;5.230;2023-12-20T08:32:51;27.35;;;6.55;;
27412;SDS011;14871;52.702;5.230;2023-12-20T08:35:17;22.50;;;3.97;;
27412;SDS011;14871;52.702;5.230;2023-12-20T08:37:43;28.38;;;3.92;;
27412;SDS011;14871;52.702;5.230;2023-12-20T08:40:09;19.80;;;4.78;;
27412;SDS011;14871;52.702;5.230;2023-12-20T08:42:35;29.30;;;5.13;;
27412;SDS011;14871;52.702;5.230;2023-12-20T08:45:01;24.85;;;5.45;;
27412;SDS011;14871;52.702;5.230;2023-12-20T08:47:28;17.80;;;3.75;;
27412;SDS011;14871;52.702;5.230;2023-12-20T08:49:54;22.27;;;5.28;;
27412;SDS011;14871;52.702;5.230;2023-12-20T08:52:22;19.83;;;3.17;;
27412;SDS011;14871;52.702;5.230;2023-12-20T08:54:48;19.52;;;4.10;;
27412;SDS011;14871;52.702;5.230;2023-12-20T08:57:16;17.05;;;4.13;;
27412;SDS011;14871;52.702;5.230;2023-12-20T08:59:43;23.98;;;4.38;;
27412;SDS011;14871;52.702;5.230;2023-12-20T09:02:09;19.35;;;4.10;;
27412;SDS011;14871;52.702;5.230;2023-12-20T09:04:34;26.30;;;4.68;;
27412;SDS011;14871;52.702;5.230;2023-12-20T09:07:00;23.85;;;4.13;;
27412;SDS011;14871;52.702;5.230;2023-12-20T09:09:26;17.90;;;4.22;;
27412;SDS011;14871;52.702;5.230;2023-12-20T09:11:52;26.13;;;4.38;;
27412;SDS011;14871;52.702;5.230;2023-12-20T09:14:17;23.17;;;4.30;;
27412;SDS011;14871;52.702;5.230;2023-12-20T09:16:43;24.52;;;4.60;;
27412;SDS011;14871;52.702;5.230;2023-12-20T09:19:08;20.25;;;4.15;;
27412;SDS011;14871;52.702;5.230;2023-12-20T09:21:34;15.63;;;4.03;;
27412;SDS011;14871;52.702;5.230;2023-12-20T09:24:00;22.98;;;4.97;;
27412;SDS011;14871;52.702;5.230;2023-12-20T09:26:25;26.75;;;4.22;;
27412;SDS011;14871;52.702;5.230;2023-12-20T09:28:51;22.27;;;3.80;;
27412;SDS011;14871;52.702;5.230;2023-12-20T09:31:16;18.55;;;4.15;;
27412;SDS011;14871;52.702;5.230;2023-12-20T09:33:42;16.83;;;3.75;;
27412;SDS011;14871;52.702;5.230;2023-12-20T09:36:08;21.65;;;3.83;;
27412;SDS011;14871;52.702;5.230;2023-12-20T09:38:33;22.13;;;3.25;;
27412;SDS011;14871;52.702;5.230;2023-12-20T09:40:59;20.65;;;3.80;;
27412;SDS011;14871;52.702;5.230;2023-12-20T09:43:27;21.45;;;3.78;;
27412;SDS011;14871;52.702;5.230;2023-12-20T09:45:54;22.80;;;4.00;;
27412;SDS011;14871;52.702;5.230;2023-12-20T09:48:27;24.80;;;3.47;;
27412;SDS011;14871;52.702;5.230;2023-12-20T09:50:53;17.42;;;3.70;;
27412;SDS011;14871;52.702;5.230;2023-12-20T09:53:19;23.17;;;3.17;;
27412;SDS011;14871;52.702;5.230;2023-12-20T09:55:48;22.92;;;4.03;;
27412;SDS011;14871;52.702;5.230;2023-12-20T09:58:14;21.17;;;3.88;;
27412;SDS011;14871;52.702;5.230;2023-12-20T10:00:40;23.77;;;3.83;;
27412;SDS011;14871;52.702;5.230;2023-12-20T10:03:06;16.92;;;3.17;;
27412;SDS011;14871;52.702;5.230;2023-12-20T10:05:32;19.08;;;3.78;;
27412;SDS011;14871;52.702;5.230;2023-12-20T10:07:59;18.05;;;3.42;;
27412;SDS011;14871;52.702;5.230;2023-12-20T10:10:26;17.10;;;3.45;;
27412;SDS011;14871;52.702;5.230;2023-12-20T10:13:05;20.90;;;3.97;;
27412;SDS011;14871;52.702;5.230;2023-12-20T10:15:34;17.33;;;3.50;;
27412;SDS011;14871;52.702;5.230;2023-12-20T10:18:01;20.73;;;3.53;;
27412;SDS011;14871;52.702;5.230;2023-12-20T10:20:28;22.52;;;3.67;;
27412;SDS011;14871;52.702;5.230;2023-12-20T10:22:54;20.92;;;4.25;;
27412;SDS011;14871;52.702;5.230;2023-12-20T10:25:21;23.15;;;3.90;;
27412;SDS011;14871;52.702;5.230;2023-12-20T10:27:46;26.63;;;3.63;;
27412;SDS011;14871;52.702;5.230;2023-12-20T10:30:13;18.73;;;3.08;;
27412;SDS011;14871;52.702;5.230;2023-12-20T10:32:39;14.73;;;2.97;;
27412;SDS011;14871;52.702;5.230;2023-12-20T10:35:06;18.48;;;3.97;;
27412;SDS011;14871;52.702;5.230;2023-12-20T10:37:35;19.83;;;4.00;;
27412;SDS011;14871;52.702;5.230;2023-12-20T10:40:02;28.80;;;4.65;;
27412;SDS011;14871;52.702;5.230;2023-12-20T10:42:30;15.27;;;3.28;;
27412;SDS011;14871;52.702;5.230;2023-12-20T10:44:59;15.30;;;3.25;;
27412;SDS011;14871;52.702;5.230;2023-12-20T10:47:25;21.25;;;3.58;;
27412;SDS011;14871;52.702;5.230;2023-12-20T10:49:51;15.27;;;2.92;;
27412;SDS011;14871;52.702;5.230;2023-12-20T10:52:18;26.52;;;5.20;;
27412;SDS011;14871;52.702;5.230;2023-12-20T10:54:45;17.63;;;3.47;;
27412;SDS011;14871;52.702;5.230;2023-12-20T10:57:11;17.70;;;3.10;;
27412;SDS011;14871;52.702;5.230;2023-12-20T10:59:37;14.68;;;2.95;;
27412;SDS011;14871;52.702;5.230;2023-12-20T11:02:04;14.80;;;2.90;;
27412;SDS011;14871;52.702;5.230;2023-12-20T11:04:33;17.95;;;3.08;;
27412;SDS011;14871;52.702;5.230;2023-12-20T11:07:28;22.13;;;3.90;;
27412;SDS011;14871;52.702;5.230;2023-12-20T11:09:59;19.42;;;3.90;;
27412;SDS011;14871;52.702;5.230;2023-12-20T11:12:41;15.18;;;3.15;;
27412;SDS011;14871;52.702;5.230;2023-12-20T11:15:13;15.07;;;3.10;;
27412;SDS011;14871;52.702;5.230;2023-12-20T11:17:41;17.48;;;3.50;;
27412;SDS011;14871;52.702;5.230;2023-12-20T11:20:11;14.63;;;3.60;;
27412;SDS011;14871;52.702;5.230;2023-12-20T11:22:37;24.77;;;4.03;;
27412;SDS011;14871;52.702;5.230;2023-12-20T11:27:34;21.45;;;3.17;;
27412;SDS011;14871;52.702;5.230;2023-12-20T11:30:02;21.17;;;3.40;;
27412;SDS011;14871;52.702;5.230;2023-12-20T11:32:31;18.35;;;3.33;;
27412;SDS011;14871;52.702;5.230;2023-12-20T11:35:00;21.52;;;3.25;;
27412;SDS011;14871;52.702;5.230;2023-12-20T11:37:41;19.60;;;3.53;;
27412;SDS011;14871;52.702;5.230;2023-12-20T11:40:08;17.67;;;3.33;;
27412;SDS011;14871;52.702;5.230;2023-12-20T11:42:43;18.30;;;3.17;;
27412;SDS011;14871;52.702;5.230;2023-12-20T11:45:13;16.15;;;2.88;;
27412;SDS011;14871;52.702;5.230;2023-12-20T11:47:44;16.50;;;3.03;;
27412;SDS011;14871;52.702;5.230;2023-12-20T11:50:11;19.65;;;3.72;;
27412;SDS011;14871;52.702;5.230;2023-12-20T11:52:37;19.55;;;3.90;;
27412;SDS011;14871;52.702;5.230;2023-12-20T11:55:03;17.25;;;3.35;;
27412;SDS011;14871;52.702;5.230;2023-12-20T11:57:30;24.60;;;5.90;;
27412;SDS011;14871;52.702;5.230;2023-12-20T11:59:56;20.40;;;3.63;;
27412;SDS011;14871;52.702;5.230;2023-12-20T12:02:21;19.17;;;3.75;;
27412;SDS011;14871;52.702;5.230;2023-12-20T12:04:48;24.45;;;4.18;;
27412;SDS011;14871;52.702;5.230;2023-12-20T12:07:15;15.48;;;3.08;;
27412;SDS011;14871;52.702;5.230;2023-12-20T12:09:42;15.50;;;3.45;;
27412;SDS011;14871;52.702;5.230;2023-12-20T12:12:08;16.65;;;3.45;;
27412;SDS011;14871;52.702;5.230;2023-12-20T12:14:33;16.48;;;3.15;;
27412;SDS011;14871;52.702;5.230;2023-12-20T12:17:01;17.27;;;2.88;;
27412;SDS011;14871;52.702;5.230;2023-12-20T12:19:28;13.25;;;3.15;;
27412;SDS011;14871;52.702;5.230;2023-12-20T12:22:15;16.13;;;2.70;;
27412;SDS011;14871;52.702;5.230;2023-12-20T12:24:45;18.17;;;2.97;;
27412;SDS011;14871;52.702;5.230;2023-12-20T12:27:15;20.70;;;3.22;;
27412;SDS011;14871;52.702;5.230;2023-12-20T12:29:41;14.82;;;2.78;;
27412;SDS011;14871;52.702;5.230;2023-12-20T12:32:28;19.05;;;3.20;;
27412;SDS011;14871;52.702;5.230;2023-12-20T12:34:54;15.70;;;2.72;;
27412;SDS011;14871;52.702;5.230;2023-12-20T12:37:20;17.27;;;2.60;;
27412;SDS011;14871;52.702;5.230;2023-12-20T12:39:48;14.32;;;2.85;;
27412;SDS011;14871;52.702;5.230;2023-12-20T12:42:14;16.88;;;3.20;;
27412;SDS011;14871;52.702;5.230;2023-12-20T12:44:40;19.60;;;2.72;;
27412;SDS011;14871;52.702;5.230;2023-12-20T12:47:06;22.27;;;3.53;;
27412;SDS011;14871;52.702;5.230;2023-12-20T12:49:32;18.77;;;3.30;;
27412;SDS011;14871;52.702;5.230;2023-12-20T12:51:58;17.38;;;2.80;;
27412;SDS011;14871;52.702;5.230;2023-12-20T12:54:24;16.40;;;2.70;;
27412;SDS011;14871;52.702;5.230;2023-12-20T12:56:50;17.30;;;2.70;;
27412;SDS011;14871;52.702;5.230;2023-12-20T12:59:19;19.30;;;3.30;;
27412;SDS011;14871;52.702;5.230;2023-12-20T13:01:44;20.30;;;3.80;;
27412;SDS011;14871;52.702;5.230;2023-12-20T13:04:10;14.60;;;3.50;;
27412;SDS011;14871;52.702;5.230;2023-12-20T13:06:39;15.27;;;3.13;;
27412;SDS011;14871;52.702;5.230;2023-12-20T13:09:07;18.17;;;3.65;;
27412;SDS011;14871;52.702;5.230;2023-12-20T13:11:34;19.30;;;3.70;;
27412;SDS011;14871;52.702;5.230;2023-12-20T13:14:00;23.98;;;3.42;;
27412;SDS011;14871;52.702;5.230;2023-12-20T13:16:26;18.08;;;3.40;;
27412;SDS011;14871;52.702;5.230;2023-12-20T13:18:52;19.10;;;3.95;;
27412;SDS011;14871;52.702;5.230;2023-12-20T13:21:18;19.70;;;3.90;;
27412;SDS011;14871;52.702;5.230;2023-12-20T13:23:44;20.48;;;3.20;;
27412;SDS011;14871;52.702;5.230;2023-12-20T13:26:09;18.77;;;3.58;;
27412;SDS011;14871;52.702;5.230;2023-12-20T13:28:35;16.52;;;2.80;;
27412;SDS011;14871;52.702;5.230;2023-12-20T13:31:01;24.15;;;4.40;;
27412;SDS011;14871;52.702;5.230;2023-12-20T13:33:26;18.98;;;3.35;;
27412;SDS011;14871;52.702;5.230;2023-12-20T13:35:55;20.95;;;3.78;;
27412;SDS011;14871;52.702;5.230;2023-12-20T13:38:23;15.13;;;2.72;;
27412;SDS011;14871;52.702;5.230;2023-12-20T13:40:49;17.95;;;2.70;;
27412;SDS011;14871;52.702;5.230;2023-12-20T13:43:14;28.23;;;5.18;;
27412;SDS011;14871;52.702;5.230;2023-12-20T13:45:45;15.30;;;3.55;;
27412;SDS011;14871;52.702;5.230;2023-12-20T13:48:11;20.67;;;3.22;;
27412;SDS011;14871;52.702;5.230;2023-12-20T13:50:37;22.20;;;3.92;;
27412;SDS011;14871;52.702;5.230;2023-12-20T13:53:03;15.95;;;3.20;;
27412;SDS011;14871;52.702;5.230;2023-12-20T13:55:29;19.27;;;3.20;;
27412;SDS011;14871;52.702;5.230;2023-12-20T13:57:55;14.07;;;2.95;;
27412;SDS011;14871;52.702;5.230;2023-12-20T14:00:21;23.77;;;3.72;;
27412;SDS011;14871;52.702;5.230;2023-12-20T14:02:47;22.00;;;4.28;;
27412;SDS011;14871;52.702;5.230;2023-12-20T14:05:13;18.75;;;3.80;;
27412;SDS011;14871;52.702;5.230;2023-12-20T14:07:42;22.45;;;3.33;;
27412;SDS011;14871;52.702;5.230;2023-12-20T14:10:10;18.40;;;3.58;;
27412;SDS011;14871;52.702;5.230;2023-12-20T14:12:37;20.52;;;3.60;;
27412;SDS011;14871;52.702;5.230;2023-12-20T14:15:03;22.23;;;4.03;;
27412;SDS011;14871;52.702;5.230;2023-12-20T14:17:29;18.60;;;3.28;;
27412;SDS011;14871;52.702;5.230;2023-12-20T14:19:56;18.17;;;2.97;;
27412;SDS011;14871;52.702;5.230;2023-12-20T14:22:21;18.85;;;3.60;;
27412;SDS011;14871;52.702;5.230;2023-12-20T14:24:47;17.20;;;3.50;;
27412;SDS011;14871;52.702;5.230;2023-12-20T14:27:12;17.02;;;3.50;;
27412;SDS011;14871;52.702;5.230;2023-12-20T14:29:38;17.63;;;3.10;;
27412;SDS011;14871;52.702;5.230;2023-12-20T14:32:04;24.70;;;4.28;;